createdAt,value
2023-04-06T00:00:57.953Z,98735.79
2023-04-06T00:03:28.297Z,98736.00
2023-04-06T00:05:57.478Z,98732.39
2023-04-06T00:08:27.174Z,98728.68
2023-04-06T00:10:55.496Z,98719.64
2023-04-06T00:13:29.274Z,98719.97
2023-04-06T00:16:00.270Z,98719.69
2023-04-06T00:18:30.538Z,98721.92
2023-04-06T00:20:58.505Z,98717.84
2023-04-06T00:23:26.466Z,98717.84
2023-04-06T00:25:55.382Z,98719.00
2023-04-06T00:28:27.146Z,98711.23
2023-04-06T00:30:58.754Z,98711.67
2023-04-06T00:33:27.494Z,98706.98
2023-04-06T00:35:55.689Z,98702.95
2023-04-06T00:38:24.348Z,98705.83
2023-04-06T00:40:52.609Z,98704.88
2023-04-06T00:43:21.927Z,98699.27
2023-04-06T00:45:50.466Z,98703.55
2023-04-06T00:48:20.536Z,98703.55
2023-04-06T00:50:48.758Z,98696.70
2023-04-06T00:53:17.273Z,98696.29
2023-04-06T00:55:45.408Z,98692.23
2023-04-06T00:58:13.734Z,98697.97
2023-04-06T01:00:53.686Z,98700.94
2023-04-06T01:03:24.823Z,98699.95
2023-04-06T01:05:59.250Z,98698.28
2023-04-06T01:08:31.986Z,98697.23
2023-04-06T01:11:12.426Z,98697.03
2023-04-06T01:13:40.983Z,98697.48
2023-04-06T01:16:17.090Z,98689.58
2023-04-06T01:19:11.513Z,98686.70
2023-04-06T01:21:42.149Z,98687.08
2023-04-06T01:24:19.232Z,98680.98
2023-04-06T01:27:01.786Z,98681.72
2023-04-06T01:29:35.439Z,98678.87
2023-04-06T01:32:04.374Z,98680.63
2023-04-06T01:34:34.156Z,98675.95
2023-04-06T01:37:04.021Z,98680.66
2023-04-06T01:39:33.067Z,98681.61
2023-04-06T01:42:03.601Z,98686.77
2023-04-06T01:44:35.786Z,98679.53
2023-04-06T01:47:11.342Z,98680.64
2023-04-06T01:49:41.641Z,98686.91
2023-04-06T01:52:10.288Z,98684.45
2023-04-06T01:54:42.316Z,98679.86
2023-04-06T01:57:14.671Z,98682.53
2023-04-06T02:00:03.161Z,98674.27
2023-04-06T02:02:46.699Z,98675.48
2023-04-06T02:05:22.769Z,98677.79
2023-04-06T02:07:56.000Z,98667.23
2023-04-06T02:10:31.348Z,98663.25
2023-04-06T02:13:00.113Z,98661.92
2023-04-06T02:15:28.508Z,98663.05
2023-04-06T02:17:58.413Z,98656.25
2023-04-06T02:20:27.749Z,98651.02
2023-04-06T02:22:59.900Z,98654.75
2023-04-06T02:25:28.055Z,98656.60
2023-04-06T02:27:56.370Z,98651.61
2023-04-06T02:30:25.627Z,98657.96
2023-04-06T02:32:54.151Z,98656.46
2023-04-06T02:35:22.678Z,98655.43
2023-04-06T02:37:55.296Z,98649.70
2023-04-06T02:40:23.295Z,98652.52
2023-04-06T02:42:51.655Z,98649.77
2023-04-06T02:45:22.373Z,98653.11
2023-04-06T02:47:50.813Z,98649.04
2023-04-06T02:50:19.445Z,98647.52
2023-04-06T02:52:55.197Z,98649.25
2023-04-06T02:55:23.904Z,98651.48
2023-04-06T02:57:52.047Z,98650.56
2023-04-06T03:00:24.328Z,98655.98
2023-04-06T03:02:52.877Z,98652.41
2023-04-06T03:05:21.694Z,98650.91
2023-04-06T03:07:50.332Z,98653.16
2023-04-06T03:10:26.286Z,98655.16
2023-04-06T03:12:54.317Z,98657.61
2023-04-06T03:15:34.197Z,98652.15
2023-04-06T03:18:12.800Z,98644.12
2023-04-06T03:20:48.236Z,98640.56
2023-04-06T03:23:24.653Z,98642.53
2023-04-06T03:25:56.484Z,98645.23
2023-04-06T03:28:24.522Z,98649.62
2023-04-06T03:30:58.081Z,98649.42
2023-04-06T03:33:41.560Z,98649.15
2023-04-06T03:36:11.411Z,98644.90
2023-04-06T03:38:46.606Z,98649.48
2023-04-06T03:41:15.924Z,98644.96
2023-04-06T03:43:54.469Z,98646.42
2023-04-06T03:46:23.044Z,98648.36
2023-04-06T03:48:53.879Z,98646.89
2023-04-06T03:51:25.864Z,98643.49
2023-04-06T03:53:54.030Z,98650.96
2023-04-06T03:56:23.598Z,98648.39
2023-04-06T03:58:56.848Z,98655.84
2023-04-06T04:01:26.626Z,98654.11
2023-04-06T04:03:57.012Z,98655.78
2023-04-06T04:06:25.346Z,98653.91
2023-04-06T04:08:54.608Z,98658.69
2023-04-06T04:11:22.868Z,98657.67
2023-04-06T04:13:59.129Z,98659.12
2023-04-06T04:16:28.252Z,98655.19
2023-04-06T04:18:56.500Z,98658.31
2023-04-06T04:21:26.590Z,98661.13
2023-04-06T04:23:56.060Z,98665.09
2023-04-06T04:26:25.776Z,98665.54
2023-04-06T04:28:53.898Z,98674.02
2023-04-06T04:31:23.755Z,98672.55
2023-04-06T04:33:57.452Z,98673.02
2023-04-06T04:36:29.809Z,98678.00
2023-04-06T04:38:58.644Z,98677.77
2023-04-06T04:41:27.307Z,98675.58
2023-04-06T04:43:59.449Z,98671.79
2023-04-06T04:46:27.835Z,98676.23
2023-04-06T04:48:56.446Z,98675.64
2023-04-06T04:51:26.360Z,98675.89
2023-04-06T04:54:06.661Z,98678.83
2023-04-06T04:56:39.223Z,98681.83
2023-04-06T04:59:23.332Z,98686.33
2023-04-06T05:01:57.390Z,98680.97
2023-04-06T05:04:32.478Z,98678.40
2023-04-06T05:07:05.861Z,98680.25
2023-04-06T05:09:34.244Z,98678.98
2023-04-06T05:12:05.537Z,98682.77
2023-04-06T05:14:36.827Z,98681.16
2023-04-06T05:17:06.426Z,98684.29
2023-04-06T05:19:35.656Z,98674.05
2023-04-06T05:22:03.901Z,98674.46
2023-04-06T05:24:38.095Z,98682.88
2023-04-06T05:27:07.658Z,98676.34
2023-04-06T05:29:36.708Z,98680.06
2023-04-06T05:32:07.332Z,98690.09
2023-04-06T05:34:36.513Z,98692.94
2023-04-06T05:37:05.531Z,98682.55
2023-04-06T05:39:33.671Z,98678.25
2023-04-06T05:42:05.744Z,98677.15
2023-04-06T05:44:44.919Z,98681.12
2023-04-06T05:47:15.819Z,98675.14
2023-04-06T05:49:44.203Z,98681.00
2023-04-06T05:52:16.384Z,98684.21
2023-04-06T05:54:49.372Z,98682.95
2023-04-06T05:57:17.817Z,98687.66
2023-04-06T05:59:47.647Z,98677.81
2023-04-06T06:02:19.364Z,98683.30
2023-04-06T06:04:50.130Z,98681.86
2023-04-06T06:07:18.863Z,98674.56
2023-04-06T06:09:59.919Z,98686.45
2023-04-06T06:12:36.284Z,98683.20
2023-04-06T06:15:05.358Z,98691.35
2023-04-06T06:17:39.110Z,98692.65
2023-04-06T06:20:08.688Z,98699.08
2023-04-06T06:22:38.966Z,98698.73
2023-04-06T06:25:07.668Z,98689.02
2023-04-06T06:27:36.381Z,98685.98
2023-04-06T06:30:06.077Z,98685.20
2023-04-06T06:32:37.521Z,98684.06
2023-04-06T06:35:08.804Z,98686.66
2023-04-06T06:37:37.244Z,98687.95
2023-04-06T06:40:07.252Z,98688.88
2023-04-06T06:42:36.090Z,98683.98
2023-04-06T06:45:11.134Z,98687.15
2023-04-06T06:47:40.127Z,98688.52
2023-04-06T06:50:08.893Z,98685.14
2023-04-06T06:52:43.212Z,98684.92
2023-04-06T06:55:12.279Z,98682.52
2023-04-06T06:57:40.283Z,98691.13
2023-04-06T07:00:12.284Z,98693.71
2023-04-06T07:02:48.780Z,98688.13
2023-04-06T07:07:57.882Z,98686.30
2023-04-06T07:10:27.559Z,98689.48
2023-04-06T07:12:55.763Z,98696.73
2023-04-06T07:15:24.318Z,98700.72
2023-04-06T07:17:53.493Z,98702.36
2023-04-06T07:20:21.863Z,98703.62
2023-04-06T07:22:53.359Z,98700.32
2023-04-06T07:25:24.310Z,98704.62
2023-04-06T07:27:58.241Z,98701.42
2023-04-06T07:30:29.714Z,98708.16
2023-04-06T07:33:06.691Z,98699.92
2023-04-06T07:35:38.357Z,98701.98
2023-04-06T07:38:07.732Z,98697.27
2023-04-06T07:40:36.895Z,98693.56
2023-04-06T07:43:06.864Z,98692.33
2023-04-06T07:45:36.280Z,98688.16
2023-04-06T07:48:04.618Z,98698.47
2023-04-06T07:50:33.303Z,98701.45
2023-04-06T07:53:02.070Z,98704.32
2023-04-06T07:55:32.083Z,98707.10
2023-04-06T07:58:00.268Z,98709.77
2023-04-06T08:00:28.968Z,98710.74
2023-04-06T08:03:07.805Z,98707.67
2023-04-06T08:05:36.301Z,98707.15
2023-04-06T08:08:08.051Z,98713.63
2023-04-06T08:10:38.894Z,98721.11
2023-04-06T08:13:06.855Z,98718.54
2023-04-06T08:15:41.682Z,98710.83
2023-04-06T08:18:10.632Z,98714.19
2023-04-06T08:20:38.643Z,98717.88
2023-04-06T08:23:07.841Z,98712.13
2023-04-06T08:25:36.782Z,98709.74
2023-04-06T08:28:06.028Z,98712.45
2023-04-06T08:30:34.365Z,98711.41
2023-04-06T08:33:11.713Z,98715.23
2023-04-06T08:35:39.820Z,98718.79
2023-04-06T08:38:08.756Z,98716.61
2023-04-06T08:40:38.680Z,98716.80
2023-04-06T08:43:12.612Z,98713.40
2023-04-06T08:45:42.689Z,98716.38
2023-04-06T08:48:11.057Z,98719.31
2023-04-06T08:50:40.148Z,98715.95
2023-04-06T08:53:09.175Z,98720.21
2023-04-06T08:55:38.201Z,98718.47
2023-04-06T08:58:07.877Z,98724.50
2023-04-06T09:00:40.055Z,98722.91
2023-04-06T09:03:27.371Z,98721.74
2023-04-06T09:05:56.657Z,98724.91
2023-04-06T09:08:25.984Z,98717.98
2023-04-06T09:10:54.129Z,98721.08
2023-04-06T09:13:25.356Z,98720.65
2023-04-06T09:16:05.058Z,98717.79
2023-04-06T09:18:33.934Z,98719.67
2023-04-06T09:21:05.362Z,98728.46
2023-04-06T09:23:34.360Z,98729.81
2023-04-06T09:26:16.214Z,98735.02
2023-04-06T09:28:56.153Z,98738.66
2023-04-06T09:31:28.736Z,98745.67
2023-04-06T09:33:57.140Z,98738.25
2023-04-06T09:36:32.262Z,98741.98
2023-04-06T09:39:07.726Z,98740.02
2023-04-06T09:41:37.364Z,98747.73
2023-04-06T09:44:14.422Z,98751.47
2023-04-06T09:46:58.552Z,98748.78
2023-04-06T09:49:28.792Z,98747.98
2023-04-06T09:51:58.611Z,98750.12
2023-04-06T09:54:31.313Z,98754.02
2023-04-06T09:57:11.304Z,98754.13
2023-04-06T10:00:05.156Z,98761.98
2023-04-06T10:02:57.134Z,98765.97
2023-04-06T10:05:38.115Z,98768.82
2023-04-06T10:08:08.581Z,98765.92
2023-04-06T10:10:38.831Z,98766.80
2023-04-06T10:13:07.240Z,98764.31
2023-04-06T10:15:35.855Z,98768.36
2023-04-06T10:18:04.659Z,98771.98
2023-04-06T10:20:53.300Z,98771.11
2023-04-06T10:23:50.286Z,98766.57
2023-04-06T10:26:22.341Z,98765.27
2023-04-06T10:28:51.924Z,98770.67
2023-04-06T10:31:27.411Z,98772.59
2023-04-06T10:34:03.090Z,98769.75
2023-04-06T10:36:34.388Z,98774.63
2023-04-06T10:39:04.521Z,98774.72
2023-04-06T10:41:45.934Z,98779.55
2023-04-06T10:44:25.228Z,98779.75
2023-04-06T10:46:59.407Z,98782.45
2023-04-06T10:49:27.962Z,98783.50
2023-04-06T10:51:57.004Z,98782.20
2023-04-06T10:54:26.053Z,98788.84
2023-04-06T10:56:54.080Z,98786.26
2023-04-06T10:59:23.233Z,98795.48
2023-04-06T11:01:52.461Z,98795.20
2023-04-06T11:04:21.316Z,98792.11
2023-04-06T11:06:50.001Z,98793.11
2023-04-06T11:09:26.163Z,98798.83
2023-04-06T11:11:54.462Z,98803.66
2023-04-06T11:14:24.308Z,98796.55
2023-04-06T11:16:52.570Z,98795.84
2023-04-06T11:19:21.066Z,98802.50
2023-04-06T11:21:55.103Z,98804.74
2023-04-06T11:24:25.103Z,98808.15
2023-04-06T11:26:58.975Z,98808.64
2023-04-06T11:29:28.487Z,98808.63
2023-04-06T11:32:00.807Z,98812.35
2023-04-06T11:34:30.498Z,98814.62
2023-04-06T11:37:00.884Z,98821.29
2023-04-06T11:39:30.537Z,98823.03
2023-04-06T11:42:01.003Z,98824.71
2023-04-06T11:44:34.141Z,98826.21
2023-04-06T11:47:04.661Z,98825.34
2023-04-06T11:49:34.238Z,98830.55
2023-04-06T11:52:04.242Z,98832.84
2023-04-06T11:54:34.292Z,98827.12
2023-04-06T11:57:03.535Z,98826.66
2023-04-06T11:59:32.707Z,98829.73
2023-04-06T12:02:02.440Z,98830.10
2023-04-06T12:04:31.164Z,98834.50
2023-04-06T12:06:59.408Z,98841.19
2023-04-06T12:09:27.846Z,98837.64
2023-04-06T12:11:57.140Z,98838.09
2023-04-06T12:14:25.180Z,98837.62
2023-04-06T12:16:53.591Z,98837.19
2023-04-06T12:19:22.213Z,98833.53
2023-04-06T12:21:51.404Z,98832.69
2023-04-06T12:24:19.534Z,98835.48
2023-04-06T12:26:48.405Z,98835.61
2023-04-06T12:29:16.622Z,98831.07
2023-04-06T12:31:46.232Z,98829.27
2023-04-06T12:34:14.447Z,98831.77
2023-04-06T12:36:43.100Z,98829.57
2023-04-06T12:39:14.309Z,98834.94
2023-04-06T12:41:42.513Z,98837.86
2023-04-06T12:44:10.613Z,98835.02
2023-04-06T12:46:39.297Z,98829.25
2023-04-06T12:49:07.528Z,98835.58
2023-04-06T12:51:41.631Z,98836.84
2023-04-06T12:54:10.589Z,98836.27
2023-04-06T12:56:38.737Z,98834.96
2023-04-06T12:59:07.416Z,98835.35
2023-04-06T13:01:36.897Z,98834.73
2023-04-06T13:04:05.074Z,98833.19
2023-04-06T13:06:35.267Z,98836.05
2023-04-06T13:09:04.317Z,98838.95
2023-04-06T13:11:33.494Z,98831.69
2023-04-06T13:14:02.009Z,98837.66
2023-04-06T13:16:33.785Z,98836.15
2023-04-06T13:19:02.496Z,98838.94
2023-04-06T13:21:34.658Z,98844.39
2023-04-06T13:24:02.850Z,98846.05
2023-04-06T13:26:31.197Z,98847.36
2023-04-06T13:29:00.491Z,98843.04
2023-04-06T13:31:31.650Z,98837.13
2023-04-06T13:34:00.242Z,98835.90
2023-04-06T13:36:28.913Z,98836.93
2023-04-06T13:38:59.582Z,98840.45
2023-04-06T13:41:28.022Z,98844.64
2023-04-06T13:43:56.071Z,98843.05
2023-04-06T13:46:26.022Z,98842.86
2023-04-06T13:48:55.126Z,98846.27
2023-04-06T13:51:23.716Z,98841.36
2023-04-06T13:53:53.741Z,98837.45
2023-04-06T13:56:24.116Z,98846.83
2023-04-06T13:58:55.528Z,98846.64
2023-04-06T14:01:23.898Z,98847.96
2023-04-06T14:03:53.333Z,98844.86
2023-04-06T14:06:31.132Z,98843.64
2023-04-06T14:09:02.748Z,98841.89
2023-04-06T14:11:33.494Z,98840.05
2023-04-06T14:14:02.014Z,98838.84
2023-04-06T14:16:30.247Z,98837.34
2023-04-06T14:18:59.908Z,98837.23
2023-04-06T14:21:28.548Z,98842.77
2023-04-06T14:23:58.072Z,98839.70
2023-04-06T14:26:28.746Z,98842.36
2023-04-06T14:28:56.958Z,98845.30
2023-04-06T14:31:27.343Z,98841.23
2023-04-06T14:33:55.761Z,98842.70
2023-04-06T14:36:24.158Z,98843.56
2023-04-06T14:38:55.018Z,98845.74
2023-04-06T14:41:23.884Z,98847.39
2023-04-06T14:43:53.796Z,98850.17
2023-04-06T14:46:22.013Z,98849.92
2023-04-06T14:48:50.140Z,98849.34
2023-04-06T14:51:18.287Z,98855.02
2023-04-06T14:53:46.925Z,98851.08
2023-04-06T14:56:21.612Z,98850.18
2023-04-06T14:58:52.609Z,98854.33
2023-04-06T15:01:24.272Z,98855.04
2023-04-06T15:03:53.690Z,98856.11
2023-04-06T15:06:22.596Z,98859.18
2023-04-06T15:08:52.129Z,98857.96
2023-04-06T15:11:21.143Z,98856.45
2023-04-06T15:13:50.784Z,98854.84
2023-04-06T15:16:21.123Z,98855.23
2023-04-06T15:18:49.177Z,98856.95
2023-04-06T15:21:17.240Z,98856.41
2023-04-06T15:23:45.745Z,98862.44
2023-04-06T15:26:14.067Z,98860.68
2023-04-06T15:28:44.790Z,98865.27
2023-04-06T15:31:24.457Z,98870.77
2023-04-06T15:34:01.600Z,98874.69
2023-04-06T15:36:33.279Z,98872.60
2023-04-06T15:39:01.817Z,98870.92
2023-04-06T15:41:30.959Z,98869.28
2023-04-06T15:43:58.967Z,98870.48
2023-04-06T15:46:29.023Z,98876.16
2023-04-06T15:48:57.423Z,98878.30
2023-04-06T15:51:26.600Z,98882.88
2023-04-06T15:53:58.782Z,98881.91
2023-04-06T15:56:27.022Z,98884.15
2023-04-06T15:59:01.664Z,98883.69
2023-04-06T16:01:31.565Z,98883.65
2023-04-06T16:04:01.079Z,98879.20
2023-04-06T16:06:29.584Z,98878.55
2023-04-06T16:08:58.683Z,98876.46
2023-04-06T16:11:26.825Z,98882.14
2023-04-06T16:13:55.645Z,98885.27
2023-04-06T16:16:24.454Z,98884.48
2023-04-06T16:18:52.978Z,98887.40
2023-04-06T16:21:21.332Z,98888.29
2023-04-06T16:23:49.420Z,98890.13
2023-04-06T16:26:21.845Z,98900.26
2023-04-06T16:28:51.508Z,98906.05
2023-04-06T16:31:23.731Z,98907.03
2023-04-06T16:33:53.041Z,98918.35
2023-04-06T16:36:29.217Z,98924.29
2023-04-06T16:39:00.188Z,98923.80
2023-04-06T16:41:28.256Z,98928.33
2023-04-06T16:43:57.556Z,98927.42
2023-04-06T16:46:32.742Z,98928.92
2023-04-06T16:49:01.031Z,98933.73
2023-04-06T16:51:29.825Z,98931.08
2023-04-06T16:53:58.359Z,98934.16
2023-04-06T16:56:27.704Z,98939.78
2023-04-06T16:58:55.653Z,98947.66
2023-04-06T17:01:26.394Z,98948.23
2023-04-06T17:03:55.278Z,98952.92
2023-04-06T17:06:23.851Z,98959.41
2023-04-06T17:08:53.712Z,98961.55
2023-04-06T17:11:28.578Z,98959.29
2023-04-06T17:14:04.159Z,98965.89
2023-04-06T17:16:32.782Z,98964.52
2023-04-06T17:19:02.880Z,98968.02
2023-04-06T17:21:31.360Z,98969.06
2023-04-06T17:23:59.549Z,98975.41
2023-04-06T17:26:27.595Z,98974.19
2023-04-06T17:28:55.945Z,98972.27
2023-04-06T17:31:30.456Z,98975.89
2023-04-06T17:34:00.028Z,98976.45
2023-04-06T17:36:28.645Z,98974.63
2023-04-06T17:38:59.539Z,98975.13
2023-04-06T17:41:28.947Z,98975.73
2023-04-06T17:43:57.050Z,98976.66
2023-04-06T17:46:25.757Z,98977.52
2023-04-06T17:48:53.832Z,98978.16
2023-04-06T17:51:25.046Z,98979.88
2023-04-06T17:53:53.278Z,98986.14
2023-04-06T17:56:21.750Z,98989.42
2023-04-06T18:01:20.081Z,98989.94
2023-04-06T18:03:48.724Z,98992.26
2023-04-06T18:06:16.927Z,98996.19
2023-04-06T18:08:44.949Z,99000.34
2023-04-06T18:11:21.501Z,99001.61
2023-04-06T18:13:49.954Z,99000.38
2023-04-06T18:16:23.755Z,99010.21
2023-04-06T18:18:53.211Z,99011.06
2023-04-06T18:21:21.447Z,99014.44
2023-04-06T18:23:49.515Z,99015.89
2023-04-06T18:26:18.651Z,99014.50
2023-04-06T18:28:49.044Z,99020.61
2023-04-06T18:31:18.517Z,99014.45
2023-04-06T18:33:46.921Z,99018.11
2023-04-06T18:36:15.087Z,99021.54
2023-04-06T18:38:44.839Z,99025.58
2023-04-06T18:41:14.719Z,99024.20
2023-04-06T18:43:43.053Z,99025.13
2023-04-06T18:46:14.798Z,99023.55
2023-04-06T18:48:43.228Z,99028.59
2023-04-06T18:51:11.562Z,99030.66
2023-04-06T18:53:40.220Z,99031.98
2023-04-06T18:56:15.801Z,99030.12
2023-04-06T18:58:44.911Z,99037.54
2023-04-06T19:01:30.249Z,99036.41
2023-04-06T19:04:01.563Z,99042.73
2023-04-06T19:06:31.352Z,99044.59
2023-04-06T19:09:00.069Z,99048.32
2023-04-06T19:11:31.868Z,99059.38
2023-04-06T19:13:59.892Z,99074.46
2023-04-06T19:16:32.194Z,99078.13
2023-04-06T19:19:00.777Z,99077.39
2023-04-06T19:21:28.940Z,99079.77
2023-04-06T19:23:58.676Z,99081.85
2023-04-06T19:26:27.989Z,99083.46
2023-04-06T19:28:56.128Z,99086.44
2023-04-06T19:31:27.050Z,99089.98
2023-04-06T19:33:57.760Z,99097.94
2023-04-06T19:36:28.063Z,99107.66
2023-04-06T19:38:56.147Z,99114.77
2023-04-06T19:41:24.877Z,99123.11
2023-04-06T19:43:53.500Z,99125.08
2023-04-06T19:46:21.721Z,99126.25
2023-04-06T19:48:50.135Z,99127.56
2023-04-06T19:51:18.113Z,99131.73
2023-04-06T19:53:46.972Z,99126.70
2023-04-06T19:56:16.421Z,99121.73
2023-04-06T19:58:44.779Z,99123.27
2023-04-06T20:01:13.054Z,99121.42
2023-04-06T20:03:41.376Z,99114.72
2023-04-06T20:06:09.695Z,99114.91
2023-04-06T20:08:37.713Z,99114.02
2023-04-06T20:11:08.817Z,99115.73
2023-04-06T20:13:37.515Z,99120.92
2023-04-06T20:16:05.785Z,99118.86
2023-04-06T20:18:47.708Z,99121.55
2023-04-06T20:21:16.264Z,99124.99
2023-04-06T20:23:44.486Z,99132.40
2023-04-06T20:26:12.417Z,99133.78
2023-04-06T20:28:41.074Z,99136.48
2023-04-06T20:31:16.461Z,99137.14
2023-04-06T20:33:44.927Z,99135.05
2023-04-06T20:36:15.211Z,99141.36
2023-04-06T20:38:47.986Z,99144.89
2023-04-06T20:41:16.500Z,99150.89
2023-04-06T20:43:45.302Z,99152.16
2023-04-06T20:46:19.382Z,99164.89
2023-04-06T20:48:47.697Z,99164.58
2023-04-06T20:51:19.452Z,99170.03
2023-04-06T20:53:48.712Z,99173.23
2023-04-06T20:56:22.083Z,99174.90
2023-04-06T20:58:50.609Z,99177.38
2023-04-06T21:01:21.681Z,99175.88
2023-04-06T21:03:52.064Z,99177.63
2023-04-06T21:06:20.184Z,99175.65
2023-04-06T21:08:48.253Z,99180.27
2023-04-06T21:11:17.844Z,99185.84
2023-04-06T21:13:46.176Z,99184.57
2023-04-06T21:16:17.660Z,99183.45
2023-04-06T21:18:48.506Z,99192.83
2023-04-06T21:21:16.720Z,99193.30
2023-04-06T21:23:46.519Z,99203.72
2023-04-06T21:26:14.974Z,99204.30
2023-04-06T21:28:42.959Z,99206.20
2023-04-06T21:31:11.420Z,99206.66
2023-04-06T21:33:41.169Z,99212.64
2023-04-06T21:36:09.670Z,99211.35
2023-04-06T21:38:38.019Z,99214.21
2023-04-06T21:41:07.305Z,99221.05
2023-04-06T21:43:37.161Z,99218.11
2023-04-06T21:46:05.529Z,99224.18
2023-04-06T21:48:34.412Z,99233.95
2023-04-06T21:51:02.476Z,99233.63
2023-04-06T21:53:30.689Z,99235.19
2023-04-06T21:55:58.845Z,99241.27
2023-04-06T21:58:26.976Z,99245.78
2023-04-06T22:00:55.082Z,99253.14
2023-04-06T22:03:23.778Z,99247.70
2023-04-06T22:05:52.689Z,99245.69
2023-04-06T22:08:33.228Z,99243.27
2023-04-06T22:11:09.731Z,99248.13
2023-04-06T22:13:39.288Z,99243.91
2023-04-06T22:16:07.554Z,99244.86
2023-04-06T22:18:38.722Z,99244.56
2023-04-06T22:21:08.428Z,99249.73
2023-04-06T22:23:42.268Z,99248.94
2023-04-06T22:26:13.321Z,99246.58
2023-04-06T22:28:43.074Z,99245.54
2023-04-06T22:31:11.124Z,99245.39
2023-04-06T22:33:40.360Z,99254.02
2023-04-06T22:36:08.623Z,99251.00
2023-04-06T22:38:40.030Z,99254.95
2023-04-06T22:41:08.651Z,99253.81
2023-04-06T22:43:39.233Z,99254.77
2023-04-06T22:46:07.502Z,99255.42
2023-04-06T22:48:37.370Z,99257.10
2023-04-06T22:51:05.723Z,99261.41
2023-04-06T22:53:34.153Z,99258.38
2023-04-06T22:56:05.117Z,99258.11
2023-04-06T22:58:33.912Z,99259.09
2023-04-06T23:01:08.056Z,99258.84
2023-04-06T23:03:38.694Z,99267.19
2023-04-06T23:06:07.543Z,99274.10
2023-04-06T23:08:36.105Z,99268.63
2023-04-06T23:11:05.223Z,99272.12
2023-04-06T23:13:36.478Z,99266.66
2023-04-06T23:16:07.350Z,99264.60
2023-04-06T23:18:39.195Z,99268.09
2023-04-06T23:21:10.530Z,99272.33
2023-04-06T23:23:39.824Z,99272.64
2023-04-06T23:26:08.853Z,99268.02
2023-04-06T23:28:38.214Z,99270.61
2023-04-06T23:31:08.836Z,99277.28
2023-04-06T23:33:37.968Z,99278.52
2023-04-06T23:36:06.103Z,99280.44
2023-04-06T23:38:35.164Z,99284.88
2023-04-06T23:41:03.089Z,99285.79
2023-04-06T23:43:31.125Z,99293.71
2023-04-06T23:45:59.204Z,99297.02
2023-04-06T23:48:28.004Z,99289.66
2023-04-06T23:50:56.035Z,99296.75
2023-04-06T23:53:26.837Z,99297.02
2023-04-06T23:55:54.886Z,99293.65
2023-04-06T23:58:23.016Z,99293.19
